createdAt,value
2018-08-31T00:01:43.223Z,2.83
2018-08-31T00:04:19.032Z,3.50
2018-08-31T00:07:52.792Z,3.27
2018-08-31T00:10:27.691Z,3.57
2018-08-31T00:12:56.545Z,3.00
2018-08-31T00:15:25.540Z,3.77
2018-08-31T00:17:54.575Z,3.50
2018-08-31T00:20:23.536Z,3.70
2018-08-31T00:22:52.483Z,3.40
2018-08-31T00:25:27.080Z,3.50
2018-08-31T00:28:00.967Z,3.40
2018-08-31T00:30:35.135Z,2.90
2018-08-31T00:35:45.359Z,3.30
2018-08-31T00:40:26.723Z,3.33
2018-08-31T00:43:00.980Z,3.43
2018-08-31T00:45:32.088Z,3.00
2018-08-31T00:48:01.509Z,3.60
2018-08-31T00:50:30.837Z,3.13
2018-08-31T00:53:00.434Z,3.20
2018-08-31T00:55:29.435Z,3.20
2018-08-31T00:57:58.105Z,3.53
2018-08-31T01:00:27.203Z,2.87
2018-08-31T01:02:56.013Z,3.23
2018-08-31T01:05:25.325Z,3.00
2018-08-31T01:07:54.157Z,3.50
2018-08-31T01:10:24.453Z,3.70
2018-08-31T01:12:53.540Z,3.40
2018-08-31T01:15:22.639Z,3.30
2018-08-31T01:17:52.047Z,3.50
2018-08-31T01:20:21.015Z,3.70
2018-08-31T01:22:50.556Z,3.27
2018-08-31T01:25:19.520Z,3.27
2018-08-31T01:27:48.367Z,3.13
2018-08-31T01:30:18.060Z,3.37
2018-08-31T01:32:46.540Z,3.70
2018-08-31T01:35:15.718Z,3.47
2018-08-31T01:37:44.634Z,3.80
2018-08-31T01:40:13.332Z,3.53
2018-08-31T01:42:42.407Z,3.70
2018-08-31T01:45:11.312Z,3.63
2018-08-31T01:47:40.237Z,3.70
2018-08-31T01:50:09.527Z,3.40
2018-08-31T01:52:38.406Z,3.30
2018-08-31T01:55:07.311Z,3.80
2018-08-31T01:57:36.191Z,3.90
2018-08-31T02:00:05.293Z,3.80
2018-08-31T02:02:34.832Z,3.97
2018-08-31T02:05:03.728Z,3.80
2018-08-31T02:07:32.636Z,3.87
2018-08-31T02:10:01.855Z,4.73
2018-08-31T02:12:30.240Z,4.23
2018-08-31T02:14:59.424Z,5.20
2018-08-31T02:17:28.220Z,4.57
2018-08-31T02:19:57.187Z,5.70
2018-08-31T02:22:26.004Z,5.03
2018-08-31T02:24:55.311Z,5.20
2018-08-31T02:27:24.440Z,5.53
2018-08-31T02:29:53.056Z,4.57
2018-08-31T02:32:22.361Z,5.60
2018-08-31T02:34:51.319Z,4.93
2018-08-31T02:37:20.452Z,5.20
2018-08-31T02:39:49.355Z,4.83
2018-08-31T02:42:17.983Z,5.07
2018-08-31T02:44:46.380Z,5.50
2018-08-31T02:47:15.427Z,5.53
2018-08-31T02:49:44.322Z,5.40
2018-08-31T02:52:13.180Z,4.87
2018-08-31T02:54:42.130Z,5.10
2018-08-31T02:57:11.143Z,5.13
2018-08-31T02:59:39.938Z,5.27
2018-08-31T03:02:08.596Z,4.47
2018-08-31T03:04:37.467Z,4.47
2018-08-31T03:07:06.286Z,4.23
2018-08-31T03:09:35.496Z,4.33
2018-08-31T03:12:04.891Z,4.37
2018-08-31T03:14:33.292Z,4.10
2018-08-31T03:17:02.468Z,4.60
2018-08-31T03:19:31.317Z,4.60
2018-08-31T03:22:00.192Z,4.50
2018-08-31T03:24:29.389Z,4.63
2018-08-31T03:26:58.208Z,5.03
2018-08-31T03:29:27.089Z,4.57
2018-08-31T03:31:56.660Z,4.90
2018-08-31T03:34:25.777Z,4.90
2018-08-31T03:36:55.150Z,5.13
2018-08-31T03:39:23.908Z,5.70
2018-08-31T03:41:52.642Z,5.53
2018-08-31T03:44:21.715Z,5.40
2018-08-31T03:46:50.647Z,5.90
2018-08-31T03:49:19.284Z,5.77
2018-08-31T03:51:48.072Z,6.40
2018-08-31T03:54:17.433Z,5.67
2018-08-31T03:56:45.952Z,6.20
2018-08-31T03:59:15.111Z,6.13
2018-08-31T04:01:44.163Z,6.37
2018-08-31T04:04:12.976Z,6.80
2018-08-31T04:06:41.412Z,6.80
2018-08-31T04:09:10.006Z,7.23
2018-08-31T04:11:39.075Z,6.90
2018-08-31T04:14:07.640Z,6.23
2018-08-31T04:16:36.469Z,7.47
2018-08-31T04:19:12.036Z,7.57
2018-08-31T04:21:41.018Z,8.90
2018-08-31T04:24:09.780Z,8.10
2018-08-31T04:26:38.716Z,7.63
2018-08-31T04:29:07.796Z,7.83
2018-08-31T04:31:36.755Z,8.63
2018-08-31T04:34:05.683Z,8.43
2018-08-31T04:36:34.865Z,8.27
2018-08-31T04:39:03.864Z,8.47
2018-08-31T04:41:32.976Z,8.00
2018-08-31T04:44:01.828Z,8.00
2018-08-31T04:46:30.803Z,8.03
2018-08-31T04:48:59.740Z,8.33
2018-08-31T04:51:28.633Z,8.63
2018-08-31T04:53:58.115Z,8.60
2018-08-31T04:56:27.144Z,8.37
2018-08-31T04:58:55.993Z,8.00
2018-08-31T05:01:25.206Z,9.20
2018-08-31T05:03:54.273Z,8.17
2018-08-31T05:06:23.276Z,8.07
2018-08-31T05:08:52.008Z,7.37
2018-08-31T05:11:21.313Z,7.63
2018-08-31T05:13:50.999Z,6.70
2018-08-31T05:16:19.808Z,7.43
2018-08-31T05:18:48.788Z,7.43
2018-08-31T05:21:17.784Z,7.17
2018-08-31T05:23:46.496Z,6.97
2018-08-31T05:26:15.520Z,7.33
2018-08-31T05:28:44.247Z,7.27
2018-08-31T05:31:13.369Z,7.33
2018-08-31T05:33:42.965Z,7.63
2018-08-31T05:36:12.000Z,7.50
2018-08-31T05:38:40.771Z,8.07
2018-08-31T05:41:10.175Z,8.20
2018-08-31T05:43:38.844Z,7.93
2018-08-31T05:46:07.839Z,7.77
2018-08-31T05:48:36.836Z,7.30
2018-08-31T05:51:05.495Z,8.53
2018-08-31T05:53:34.424Z,8.43
2018-08-31T05:56:03.443Z,7.33
2018-08-31T05:58:32.444Z,7.93
2018-08-31T06:01:01.153Z,7.60
2018-08-31T06:03:29.708Z,8.07
2018-08-31T06:05:58.425Z,7.83
2018-08-31T06:08:27.494Z,8.20
2018-08-31T06:10:56.597Z,8.03
2018-08-31T06:13:25.299Z,7.80
2018-08-31T06:15:54.288Z,7.83
2018-08-31T06:18:23.267Z,7.13
2018-08-31T06:20:52.401Z,6.50
2018-08-31T06:23:21.368Z,6.43
2018-08-31T06:25:50.073Z,5.77
2018-08-31T06:28:18.965Z,6.20
2018-08-31T06:30:47.792Z,5.63
2018-08-31T06:33:16.960Z,6.20
2018-08-31T06:35:45.890Z,5.90
2018-08-31T06:38:14.836Z,5.53
2018-08-31T06:40:43.884Z,5.93
2018-08-31T06:43:13.006Z,5.43
2018-08-31T06:45:42.679Z,5.03
2018-08-31T06:48:11.576Z,5.07
2018-08-31T06:50:40.539Z,4.50
2018-08-31T06:53:09.716Z,5.07
2018-08-31T06:55:38.886Z,4.20
2018-08-31T06:58:07.948Z,4.67
2018-08-31T07:00:37.069Z,4.40
2018-08-31T07:03:06.375Z,4.30
2018-08-31T07:05:35.424Z,3.77
2018-08-31T07:08:04.700Z,3.70
2018-08-31T07:10:34.864Z,4.50
2018-08-31T07:13:03.556Z,3.77
2018-08-31T07:15:32.624Z,4.60
2018-08-31T07:18:01.644Z,4.10
2018-08-31T07:20:30.094Z,4.63
2018-08-31T07:22:58.767Z,3.83
2018-08-31T07:25:27.847Z,4.33
2018-08-31T07:27:56.728Z,4.00
2018-08-31T07:30:25.648Z,3.50
2018-08-31T07:32:54.491Z,3.83
2018-08-31T07:35:23.748Z,3.87
2018-08-31T07:37:52.919Z,4.27
2018-08-31T07:40:21.790Z,4.00
2018-08-31T07:42:51.024Z,3.50
2018-08-31T07:45:19.977Z,4.20
2018-08-31T07:47:48.780Z,3.73
2018-08-31T07:50:17.708Z,3.97
2018-08-31T07:52:46.531Z,3.60
2018-08-31T07:55:15.497Z,3.83
2018-08-31T07:57:44.560Z,3.90
2018-08-31T08:00:13.615Z,4.20
2018-08-31T08:02:42.279Z,3.37
2018-08-31T08:05:10.956Z,3.50
2018-08-31T08:07:39.669Z,4.37
2018-08-31T08:10:08.785Z,3.97
2018-08-31T08:12:37.748Z,3.93
2018-08-31T08:15:06.469Z,4.10
2018-08-31T08:17:34.984Z,4.10
2018-08-31T08:20:03.648Z,3.27
2018-08-31T08:22:32.015Z,3.53
2018-08-31T08:25:00.696Z,3.47
2018-08-31T08:27:29.655Z,3.60
2018-08-31T08:29:58.568Z,3.60
2018-08-31T08:32:27.407Z,3.10
2018-08-31T08:34:56.524Z,2.80
2018-08-31T08:37:25.164Z,3.30
2018-08-31T08:39:54.263Z,3.60
2018-08-31T08:42:23.342Z,2.90
2018-08-31T08:44:52.294Z,3.07
2018-08-31T08:47:21.751Z,2.67
2018-08-31T08:49:50.136Z,3.20
2018-08-31T08:52:19.311Z,2.67
2018-08-31T08:54:48.339Z,2.73
2018-08-31T08:57:17.156Z,2.50
2018-08-31T08:59:45.996Z,2.73
2018-08-31T09:02:15.000Z,2.77
2018-08-31T09:04:43.845Z,2.33
2018-08-31T09:07:15.091Z,2.23
2018-08-31T09:09:44.288Z,2.40
2018-08-31T09:12:13.375Z,1.93
2018-08-31T09:14:42.105Z,2.03
2018-08-31T09:17:11.044Z,2.47
2018-08-31T09:19:40.216Z,2.13
2018-08-31T09:22:09.793Z,2.43
2018-08-31T09:24:39.297Z,2.03
2018-08-31T09:27:08.566Z,2.60
2018-08-31T09:29:37.530Z,2.37
2018-08-31T09:32:11.413Z,2.30
2018-08-31T09:34:45.455Z,2.50
2018-08-31T09:37:16.668Z,3.00
2018-08-31T09:39:46.386Z,2.27
2018-08-31T09:42:15.442Z,2.23
2018-08-31T09:44:44.086Z,2.10
2018-08-31T09:47:13.439Z,2.40
2018-08-31T09:49:43.191Z,2.43
2018-08-31T09:52:12.126Z,2.70
2018-08-31T09:54:41.105Z,2.90
2018-08-31T09:57:10.596Z,2.97
2018-08-31T09:59:39.896Z,2.90
2018-08-31T10:03:15.126Z,2.77
2018-08-31T10:05:43.818Z,3.20
2018-08-31T10:08:13.183Z,3.00
2018-08-31T10:10:41.855Z,2.80
2018-08-31T10:13:11.016Z,3.07
2018-08-31T10:15:39.876Z,2.90
2018-08-31T10:18:08.775Z,2.83
2018-08-31T10:20:38.293Z,2.63
2018-08-31T10:23:06.648Z,3.30
2018-08-31T10:25:35.612Z,2.80
2018-08-31T10:28:04.672Z,2.93
2018-08-31T10:30:33.821Z,3.10
2018-08-31T10:33:02.709Z,2.80
2018-08-31T10:35:31.990Z,3.00
2018-08-31T10:38:01.068Z,2.67
2018-08-31T10:40:30.295Z,2.90
2018-08-31T10:42:59.604Z,2.57
2018-08-31T10:45:28.428Z,2.97
2018-08-31T10:47:57.078Z,2.80
2018-08-31T10:50:26.418Z,2.87
2018-08-31T10:52:54.970Z,2.90
2018-08-31T10:55:23.692Z,2.47
2018-08-31T10:57:52.332Z,2.73
2018-08-31T11:00:20.880Z,3.03
2018-08-31T11:02:49.563Z,2.60
2018-08-31T11:05:19.004Z,2.67
2018-08-31T11:07:48.126Z,2.60
2018-08-31T11:10:17.312Z,2.20
2018-08-31T11:12:46.134Z,2.53
2018-08-31T11:15:15.538Z,2.60
2018-08-31T11:17:44.208Z,2.90
2018-08-31T11:20:12.999Z,2.30
2018-08-31T11:22:41.799Z,2.70
2018-08-31T11:25:10.941Z,2.20
2018-08-31T11:27:39.728Z,2.37
2018-08-31T11:30:09.637Z,3.30
2018-08-31T11:32:38.554Z,2.47
2018-08-31T11:35:07.699Z,2.73
2018-08-31T11:37:36.601Z,2.70
2018-08-31T11:40:05.390Z,2.20
2018-08-31T11:42:33.932Z,2.30
2018-08-31T11:45:02.699Z,2.63
2018-08-31T11:47:31.525Z,2.60
2018-08-31T11:50:00.716Z,2.20
2018-08-31T11:52:29.869Z,2.67
2018-08-31T11:54:58.659Z,2.40
2018-08-31T11:57:27.491Z,2.17
2018-08-31T11:59:56.372Z,2.50
2018-08-31T12:02:25.674Z,2.70
2018-08-31T12:04:54.796Z,2.33
2018-08-31T12:07:23.892Z,2.30
2018-08-31T12:09:53.712Z,2.70
2018-08-31T12:12:22.692Z,2.40
2018-08-31T12:14:51.379Z,2.30
2018-08-31T12:17:20.353Z,2.50
2018-08-31T12:19:49.036Z,2.30
2018-08-31T12:22:18.120Z,2.33
2018-08-31T12:24:47.229Z,2.93
2018-08-31T12:27:16.107Z,2.50
2018-08-31T12:29:44.680Z,2.80
2018-08-31T12:32:13.251Z,2.73
2018-08-31T12:34:42.392Z,3.13
2018-08-31T12:37:11.347Z,2.77
2018-08-31T12:39:40.512Z,2.40
2018-08-31T12:42:09.478Z,2.73
2018-08-31T12:44:38.156Z,3.03
2018-08-31T12:47:07.204Z,2.50
2018-08-31T12:49:36.052Z,2.30
2018-08-31T12:52:04.895Z,2.30
2018-08-31T12:54:34.214Z,2.60
2018-08-31T12:57:03.056Z,2.37
2018-08-31T12:59:32.029Z,2.57
2018-08-31T13:02:00.456Z,2.50
2018-08-31T13:04:28.782Z,2.70
2018-08-31T13:06:58.029Z,2.77
2018-08-31T13:09:26.681Z,2.93
2018-08-31T13:11:55.755Z,3.00
2018-08-31T13:14:25.302Z,3.10
2018-08-31T13:16:54.440Z,2.67
2018-08-31T13:19:23.291Z,3.40
2018-08-31T13:21:52.356Z,2.90
2018-08-31T13:24:21.233Z,3.10
2018-08-31T13:26:50.188Z,3.07
2018-08-31T13:29:19.392Z,3.13
2018-08-31T13:31:48.336Z,3.20
2018-08-31T13:34:17.296Z,3.17
2018-08-31T13:36:46.120Z,2.97
2018-08-31T13:39:15.020Z,2.97
2018-08-31T13:41:43.819Z,2.87
2018-08-31T13:44:12.682Z,3.10
2018-08-31T13:46:41.617Z,3.40
2018-08-31T13:49:11.019Z,3.03
2018-08-31T13:51:39.609Z,3.40
2018-08-31T13:54:08.440Z,3.40
2018-08-31T13:56:37.126Z,2.80
2018-08-31T13:59:05.675Z,3.27
2018-08-31T14:01:34.788Z,3.20
2018-08-31T14:04:03.744Z,3.20
2018-08-31T14:06:32.695Z,3.17
2018-08-31T14:09:01.347Z,3.50
2018-08-31T14:11:29.963Z,2.90
2018-08-31T14:13:59.152Z,3.50
2018-08-31T14:16:27.932Z,3.07
2018-08-31T14:18:56.615Z,2.77
2018-08-31T14:21:25.524Z,2.50
2018-08-31T14:23:54.523Z,3.13
2018-08-31T14:26:23.359Z,2.27
2018-08-31T14:28:52.592Z,2.60
2018-08-31T14:31:21.584Z,2.60
2018-08-31T14:33:50.113Z,2.27
2018-08-31T14:36:19.307Z,2.40
2018-08-31T14:38:48.092Z,2.40
2018-08-31T14:41:16.887Z,3.03
2018-08-31T14:43:45.803Z,2.30
2018-08-31T14:46:14.641Z,2.30
2018-08-31T14:48:43.437Z,2.40
2018-08-31T14:51:12.475Z,2.33
2018-08-31T14:53:43.221Z,2.37
2018-08-31T14:56:12.192Z,2.63
2018-08-31T14:58:40.939Z,2.10
2018-08-31T15:01:09.560Z,2.63
2018-08-31T15:03:38.240Z,2.60
2018-08-31T15:06:07.196Z,2.63
2018-08-31T15:08:36.513Z,2.47
2018-08-31T15:11:05.726Z,2.30
2018-08-31T15:13:34.672Z,2.60
2018-08-31T15:16:03.460Z,2.57
2018-08-31T15:18:32.307Z,2.20
2018-08-31T15:21:01.016Z,2.30
2018-08-31T15:23:29.717Z,1.97
2018-08-31T15:25:58.041Z,2.30
2018-08-31T15:28:27.088Z,2.30
2018-08-31T15:30:56.120Z,2.50
2018-08-31T15:33:24.716Z,2.30
2018-08-31T15:35:53.380Z,2.07
2018-08-31T15:38:22.536Z,3.00
2018-08-31T15:40:51.348Z,2.57
2018-08-31T15:43:19.980Z,2.33
2018-08-31T15:45:49.051Z,2.70
2018-08-31T15:48:18.143Z,2.70
2018-08-31T15:50:47.208Z,3.00
2018-08-31T15:53:16.056Z,2.70
2018-08-31T15:55:44.728Z,2.73
2018-08-31T15:58:13.451Z,2.70
2018-08-31T16:00:42.149Z,3.10
2018-08-31T16:03:10.845Z,2.80
2018-08-31T16:05:40.040Z,2.93
2018-08-31T16:08:08.637Z,2.60
2018-08-31T16:10:36.965Z,2.80
2018-08-31T16:13:06.111Z,3.20
2018-08-31T16:15:34.799Z,3.23
2018-08-31T16:18:04.067Z,3.00
2018-08-31T16:20:32.507Z,2.70
2018-08-31T16:23:01.620Z,3.27
2018-08-31T16:25:30.688Z,3.23
2018-08-31T16:27:59.229Z,3.57
2018-08-31T16:30:27.911Z,3.03
2018-08-31T16:32:57.084Z,2.70
2018-08-31T16:35:29.565Z,3.60
2018-08-31T16:37:58.407Z,3.30
2018-08-31T16:40:27.456Z,3.57
2018-08-31T16:42:56.147Z,3.63
2018-08-31T16:45:25.115Z,4.40
2018-08-31T16:47:54.048Z,4.20
2018-08-31T16:50:22.989Z,4.13
2018-08-31T16:52:52.036Z,3.90
2018-08-31T16:55:20.951Z,4.30
2018-08-31T16:57:49.877Z,4.00
2018-08-31T17:00:18.967Z,4.50
2018-08-31T17:02:47.661Z,3.73
2018-08-31T17:05:16.824Z,3.60
2018-08-31T17:07:46.364Z,3.83
2018-08-31T17:10:15.512Z,3.93
2018-08-31T17:12:44.104Z,3.87
2018-08-31T17:15:13.064Z,3.80
2018-08-31T17:17:42.808Z,3.90
2018-08-31T17:20:11.610Z,3.73
2018-08-31T17:22:40.698Z,4.60
2018-08-31T17:25:09.980Z,3.67
2018-08-31T17:27:44.138Z,4.40
2018-08-31T17:30:18.432Z,4.17
2018-08-31T17:32:52.652Z,4.53
2018-08-31T17:35:26.417Z,3.83
2018-08-31T17:37:55.173Z,5.00
2018-08-31T17:40:23.775Z,4.93
2018-08-31T17:42:54.072Z,4.33
2018-08-31T17:45:23.057Z,4.70
2018-08-31T17:47:52.222Z,5.00
2018-08-31T17:50:22.818Z,5.20
2018-08-31T17:52:55.840Z,5.27
2018-08-31T17:55:24.908Z,5.33
2018-08-31T17:57:54.320Z,5.07
2018-08-31T18:00:23.464Z,4.73
2018-08-31T18:02:52.189Z,4.73
2018-08-31T18:05:20.911Z,4.90
2018-08-31T18:07:49.894Z,4.80
2018-08-31T18:10:19.056Z,4.90
2018-08-31T18:12:48.112Z,4.97
2018-08-31T18:15:17.372Z,4.80
2018-08-31T18:17:46.176Z,5.20
2018-08-31T18:20:15.011Z,4.27
2018-08-31T18:22:43.809Z,4.93
2018-08-31T18:25:12.880Z,4.57
2018-08-31T18:27:41.693Z,4.60
2018-08-31T18:30:10.953Z,4.33
2018-08-31T18:32:40.899Z,4.60
2018-08-31T18:35:09.052Z,4.70
2018-08-31T18:37:38.351Z,4.70
2018-08-31T18:40:07.525Z,5.00
2018-08-31T18:42:36.975Z,5.30
2018-08-31T18:45:05.678Z,5.00
2018-08-31T18:47:35.012Z,5.13
2018-08-31T18:50:04.450Z,4.63
2018-08-31T18:52:33.491Z,4.90
2018-08-31T18:55:02.916Z,4.37
2018-08-31T18:57:32.616Z,5.20
2018-08-31T19:00:02.483Z,4.70
2018-08-31T19:02:31.554Z,5.33
2018-08-31T19:05:00.738Z,5.27
2018-08-31T19:07:29.704Z,5.93
2018-08-31T19:09:58.940Z,5.40
2018-08-31T19:12:28.337Z,5.80
2018-08-31T19:15:00.022Z,5.87
2018-08-31T19:17:29.289Z,5.70
2018-08-31T19:19:58.990Z,5.60
2018-08-31T19:22:28.532Z,6.90
2018-08-31T19:24:58.089Z,6.17
2018-08-31T19:27:27.686Z,6.40
2018-08-31T19:29:57.318Z,5.97
2018-08-31T19:32:26.659Z,6.17
2018-08-31T19:34:56.315Z,5.53
2018-08-31T19:37:25.665Z,6.17
2018-08-31T19:39:54.083Z,5.40
2018-08-31T19:42:23.360Z,6.20
2018-08-31T19:44:52.549Z,5.77
2018-08-31T19:47:22.572Z,6.37
2018-08-31T19:49:52.654Z,5.77
2018-08-31T19:52:21.423Z,5.67
2018-08-31T19:54:50.858Z,5.60
2018-08-31T19:57:19.728Z,6.37
2018-08-31T19:59:49.324Z,6.30
2018-08-31T20:02:18.562Z,6.13
2018-08-31T20:04:47.656Z,6.07
2018-08-31T20:07:16.756Z,5.87
2018-08-31T20:09:46.366Z,6.40
2018-08-31T20:12:15.507Z,5.97
2018-08-31T20:14:44.536Z,6.10
2018-08-31T20:17:13.478Z,5.70
2018-08-31T20:19:42.657Z,7.00
2018-08-31T20:22:12.899Z,6.40
2018-08-31T20:24:41.856Z,6.40
2018-08-31T20:27:11.308Z,6.50
2018-08-31T20:29:40.560Z,6.17
2018-08-31T20:32:09.777Z,6.40
2018-08-31T20:34:39.278Z,6.00
2018-08-31T20:37:08.040Z,6.60
2018-08-31T20:39:36.678Z,6.63
2018-08-31T20:42:05.696Z,6.43
2018-08-31T20:44:34.944Z,7.00
2018-08-31T20:47:03.927Z,6.23
2018-08-31T20:49:32.823Z,7.00
2018-08-31T20:52:02.176Z,6.77
2018-08-31T20:54:30.911Z,6.57
2018-08-31T20:57:00.216Z,6.97
2018-08-31T20:59:29.083Z,7.00
2018-08-31T21:01:58.012Z,7.07
2018-08-31T21:04:26.923Z,6.97
2018-08-31T21:06:55.767Z,6.87
2018-08-31T21:09:24.712Z,6.67
2018-08-31T21:11:53.832Z,6.20
2018-08-31T21:14:22.717Z,6.43
2018-08-31T21:16:51.732Z,6.50
2018-08-31T21:19:20.630Z,5.80
2018-08-31T21:21:49.579Z,6.37
2018-08-31T21:24:19.348Z,5.93
2018-08-31T21:26:49.008Z,5.87
2018-08-31T21:29:18.028Z,6.10
2018-08-31T21:31:46.945Z,6.37
2018-08-31T21:34:16.200Z,6.73
2018-08-31T21:36:45.434Z,6.60
2018-08-31T21:39:14.018Z,6.33
2018-08-31T21:41:43.088Z,7.00
2018-08-31T21:44:12.253Z,6.87
2018-08-31T21:46:41.611Z,7.50
2018-08-31T21:49:10.729Z,7.97
2018-08-31T21:51:39.903Z,8.20
2018-08-31T21:54:08.848Z,7.40
2018-08-31T21:56:37.927Z,7.97
2018-08-31T21:59:07.000Z,8.30
2018-08-31T22:01:38.667Z,8.33
2018-08-31T22:04:08.673Z,7.93
2018-08-31T22:06:37.904Z,7.53
2018-08-31T22:09:07.652Z,8.30
2018-08-31T22:11:36.452Z,8.53
2018-08-31T22:14:06.532Z,8.50
2018-08-31T22:16:35.121Z,7.77
2018-08-31T22:19:04.849Z,8.13
2018-08-31T22:21:33.667Z,8.70
2018-08-31T22:24:03.013Z,8.77
2018-08-31T22:26:32.035Z,8.20
2018-08-31T22:29:01.054Z,8.33
2018-08-31T22:31:30.311Z,8.57
2018-08-31T22:33:59.659Z,8.50
2018-08-31T22:36:28.637Z,7.97
2018-08-31T22:38:57.311Z,8.20
2018-08-31T22:41:26.334Z,7.23
2018-08-31T22:43:55.151Z,7.93
2018-08-31T22:46:24.524Z,7.57
2018-08-31T22:48:53.809Z,7.50
2018-08-31T22:51:22.652Z,6.83
2018-08-31T22:53:51.447Z,6.43
2018-08-31T22:56:20.488Z,6.53
2018-08-31T22:58:50.416Z,6.60
2018-08-31T23:01:19.571Z,6.50
2018-08-31T23:03:48.708Z,6.30
2018-08-31T23:06:17.839Z,5.70
2018-08-31T23:08:46.707Z,6.07
2018-08-31T23:11:15.606Z,5.50
2018-08-31T23:13:45.432Z,6.10
2018-08-31T23:16:14.516Z,6.13
2018-08-31T23:18:43.011Z,6.33
2018-08-31T23:21:12.140Z,5.60
2018-08-31T23:23:47.747Z,5.20
2018-08-31T23:26:16.855Z,4.93
2018-08-31T23:28:45.908Z,5.20
2018-08-31T23:31:14.592Z,5.53
2018-08-31T23:33:43.256Z,5.43
2018-08-31T23:36:11.787Z,4.67
2018-08-31T23:38:41.020Z,4.80
2018-08-31T23:41:10.276Z,4.53
2018-08-31T23:43:39.327Z,4.83
2018-08-31T23:46:08.260Z,4.70
2018-08-31T23:48:37.472Z,4.23
2018-08-31T23:51:06.561Z,4.23
2018-08-31T23:53:35.500Z,4.70
2018-08-31T23:56:04.523Z,4.23
2018-08-31T23:58:33.524Z,4.33
